Time;durP1;ratioP1;P1;durP2;ratioP2;P2;SDS_P1;SDS_P2;PMS_P1;PMS_P2;Temp;Humidity;BMP_temperature;BMP_pressure;BME280_temperature;BME280_humidity;BME280_pressure;Samples;Min_cycle;Max_cycle;Signal;HPM_P1;HPM_P2
2023/05/23 00:01:53;;;;;;;11.00;7.30;;;;;;;;;;6196143;28;20046;-85
2023/05/23 00:04:57;;;;;;;10.00;7.85;;;;;;;;;;6195841;28;20069;-86
2023/05/23 00:08:01;;;;;;;13.20;8.32;;;;;;;;;;6196697;28;20054;-84
2023/05/23 00:11:02;;;;;;;12.23;8.10;;;;;;;;;;6198151;28;21045;-85
2023/05/23 00:14:07;;;;;;;11.43;7.97;;;;;;;;;;6195196;28;20054;-84
2023/05/23 00:17:09;;;;;;;9.55;7.82;;;;;;;;;;6197723;28;20050;-84
2023/05/23 00:20:12;;;;;;;12.60;8.10;;;;;;;;;;6195580;28;20046;-84
2023/05/23 00:23:17;;;;;;;22.10;9.13;;;;;;;;;;6193395;28;20329;-83
2023/05/23 00:26:20;;;;;;;12.20;8.52;;;;;;;;;;6198223;28;20279;-84
2023/05/23 00:29:22;;;;;;;10.60;7.83;;;;;;;;;;6195962;28;20231;-84
2023/05/23 00:32:23;;;;;;;14.88;8.52;;;;;;;;;;6195860;28;20092;-86
2023/05/23 00:35:25;;;;;;;16.05;9.10;;;;;;;;;;6197162;28;20361;-86
2023/05/23 00:38:28;;;;;;;11.00;8.15;;;;;;;;;;6195789;28;20203;-86
2023/05/23 00:41:30;;;;;;;14.88;8.77;;;;;;;;;;6195193;28;20096;-85
2023/05/23 00:44:32;;;;;;;12.18;8.38;;;;;;;;;;6196701;28;20054;-86
2023/05/23 00:47:34;;;;;;;11.63;8.30;;;;;;;;;;6196033;28;20106;-83
2023/05/23 00:50:36;;;;;;;12.63;9.10;;;;;;;;;;6193848;28;20314;-85
2023/05/23 00:53:41;;;;;;;10.85;8.18;;;;;;;;;;6195522;28;20379;-87
2023/05/23 00:56:43;;;;;;;13.82;8.35;;;;;;;;;;6195635;28;20043;-87
2023/05/23 00:59:45;;;;;;;11.27;8.70;;;;;;;;;;6197283;28;20054;-86
2023/05/23 01:02:50;;;;;;;12.50;8.13;;;;;;;;;;6195257;28;20328;-87
2023/05/23 01:05:52;;;;;;;11.32;8.63;;;;;;;;;;6191091;28;20254;-86
2023/05/23 01:08:55;;;;;;;10.82;8.57;;;;;;;;;;6196760;28;20067;-84
2023/05/23 01:12:14;;;;;;;12.90;8.55;;;;;;;;;;6197008;28;20094;-84
2023/05/23 01:15:18;;;;;;;11.35;8.27;;;;;;;;;;6195423;28;20054;-86
2023/05/23 01:18:26;;;;;;;11.35;8.32;;;;;;;;;;6195720;28;20050;-85
2023/05/23 01:21:29;;;;;;;13.07;8.60;;;;;;;;;;6194002;28;20054;-84
2023/05/23 01:24:36;;;;;;;12.50;8.32;;;;;;;;;;6196827;28;20054;-83
2023/05/23 01:27:49;;;;;;;14.52;8.60;;;;;;;;;;6195627;28;20121;-86
2023/05/23 01:30:52;;;;;;;11.93;8.70;;;;;;;;;;6196883;28;20190;-85
2023/05/23 01:33:54;;;;;;;12.27;9.07;;;;;;;;;;6193241;28;20101;-85
2023/05/23 01:36:56;;;;;;;13.48;8.75;;;;;;;;;;6194906;28;20054;-86
2023/05/23 01:39:58;;;;;;;13.60;9.27;;;;;;;;;;6194862;28;20055;-87
2023/05/23 01:43:01;;;;;;;14.05;9.65;;;;;;;;;;6195307;28;20642;-85
2023/05/23 01:46:03;;;;;;;10.27;8.60;;;;;;;;;;6193719;28;20096;-85
2023/05/23 01:49:08;;;;;;;12.15;8.68;;;;;;;;;;6195763;28;20299;-86
2023/05/23 01:52:09;;;;;;;11.65;8.93;;;;;;;;;;6194885;28;20074;-85
2023/05/23 01:55:13;;;;;;;12.27;8.88;;;;;;;;;;6194888;28;20062;-86
2023/05/23 01:58:16;;;;;;;12.93;9.18;;;;;;;;;;6187801;28;20047;-85
2023/05/23 02:01:18;;;;;;;15.63;9.63;;;;;;;;;;6172317;28;20062;-85
2023/05/23 02:04:19;;;;;;;12.40;8.88;;;;;;;;;;6170988;28;20113;-86
2023/05/23 02:07:22;;;;;;;13.70;8.80;;;;;;;;;;6184581;28;20059;-83
2023/05/23 02:10:24;;;;;;;13.70;8.63;;;;;;;;;;6170775;28;20070;-85
2023/05/23 02:13:27;;;;;;;12.60;9.43;;;;;;;;;;6170805;28;20118;-83
2023/05/23 02:16:28;;;;;;;12.95;9.50;;;;;;;;;;6173110;28;20070;-85
2023/05/23 02:19:30;;;;;;;13.32;8.85;;;;;;;;;;6168136;28;20239;-85
2023/05/23 02:22:32;;;;;;;14.75;9.13;;;;;;;;;;6170866;28;20288;-86
2023/05/23 02:25:33;;;;;;;11.75;9.30;;;;;;;;;;6171208;28;20102;-84
2023/05/23 02:28:36;;;;;;;11.07;8.55;;;;;;;;;;6169623;28;20061;-84
2023/05/23 02:31:38;;;;;;;13.68;9.98;;;;;;;;;;6188533;28;20058;-84
2023/05/23 02:34:40;;;;;;;11.63;9.43;;;;;;;;;;6197606;28;20062;-87
2023/05/23 02:37:42;;;;;;;16.13;9.00;;;;;;;;;;6195683;28;20042;-86
2023/05/23 02:40:43;;;;;;;10.75;8.82;;;;;;;;;;6193287;28;20050;-86
2023/05/23 02:43:47;;;;;;;13.48;9.30;;;;;;;;;;6190237;28;20331;-84
2023/05/23 02:46:49;;;;;;;10.60;9.32;;;;;;;;;;6197660;28;20046;-87
2023/05/23 02:49:50;;;;;;;10.65;8.55;;;;;;;;;;6193704;28;20282;-87
2023/05/23 02:52:52;;;;;;;11.27;9.02;;;;;;;;;;6194222;28;20109;-84
2023/05/23 02:55:53;;;;;;;11.90;8.68;;;;;;;;;;6193731;28;20287;-84
2023/05/23 02:58:56;;;;;;;12.43;10.07;;;;;;;;;;6191697;28;20069;-83
2023/05/23 03:01:58;;;;;;;11.45;8.80;;;;;;;;;;6178707;28;20204;-85
2023/05/23 03:05:00;;;;;;;11.77;9.48;;;;;;;;;;6194620;28;20061;-84
2023/05/23 03:08:01;;;;;;;12.93;9.27;;;;;;;;;;6195736;28;20077;-85
2023/05/23 03:11:03;;;;;;;14.85;9.15;;;;;;;;;;6198630;28;20109;-85
2023/05/23 03:14:06;;;;;;;14.45;9.73;;;;;;;;;;6195346;28;20042;-85
2023/05/23 03:17:08;;;;;;;11.07;9.35;;;;;;;;;;6197842;28;20043;-84
2023/05/23 03:20:11;;;;;;;11.55;9.32;;;;;;;;;;6197295;28;20065;-85
2023/05/23 03:23:12;;;;;;;12.47;9.63;;;;;;;;;;6197726;28;20287;-85
2023/05/23 03:26:14;;;;;;;12.45;9.55;;;;;;;;;;6197726;28;20318;-84
2023/05/23 03:29:17;;;;;;;12.15;9.93;;;;;;;;;;6198547;28;20331;-84
2023/05/23 03:32:19;;;;;;;14.35;9.60;;;;;;;;;;6197573;28;20066;-87
2023/05/23 03:35:20;;;;;;;13.15;10.25;;;;;;;;;;6198296;28;20050;-85
2023/05/23 03:38:22;;;;;;;13.25;10.20;;;;;;;;;;6199291;28;20061;-86
2023/05/23 03:41:25;;;;;;;14.68;10.98;;;;;;;;;;6198540;28;20247;-85
2023/05/23 03:44:28;;;;;;;13.93;9.95;;;;;;;;;;6197448;28;20224;-85
2023/05/23 03:47:29;;;;;;;12.50;10.02;;;;;;;;;;6197951;28;20274;-84
2023/05/23 03:50:31;;;;;;;12.45;9.10;;;;;;;;;;6198167;28;20089;-84
2023/05/23 03:53:33;;;;;;;15.13;10.43;;;;;;;;;;6195583;28;20054;-84
2023/05/23 03:56:34;;;;;;;12.50;9.73;;;;;;;;;;6200916;28;20148;-84
2023/05/23 03:59:38;;;;;;;16.75;10.98;;;;;;;;;;6197939;28;20046;-84
2023/05/23 04:02:39;;;;;;;17.10;10.57;;;;;;;;;;6195521;28;20059;-84
2023/05/23 04:05:41;;;;;;;15.55;11.07;;;;;;;;;;6197128;28;20109;-84
2023/05/23 04:08:44;;;;;;;14.05;10.48;;;;;;;;;;6195620;28;20061;-84
2023/05/23 04:11:46;;;;;;;15.35;10.20;;;;;;;;;;6193541;28;20064;-85
2023/05/23 04:14:49;;;;;;;13.73;10.05;;;;;;;;;;6198525;28;20122;-83
2023/05/23 04:17:51;;;;;;;14.85;9.73;;;;;;;;;;6193759;28;20114;-85
2023/05/23 04:20:53;;;;;;;16.13;11.02;;;;;;;;;;6198935;28;20058;-84
2023/05/23 04:23:55;;;;;;;18.08;11.43;;;;;;;;;;6196771;28;20046;-87
2023/05/23 04:26:58;;;;;;;15.00;10.82;;;;;;;;;;6200168;28;20058;-85
2023/05/23 04:30:01;;;;;;;15.15;10.98;;;;;;;;;;6196408;28;20117;-85
2023/05/23 04:33:05;;;;;;;13.98;10.23;;;;;;;;;;6193117;28;20050;-85
2023/05/23 04:36:08;;;;;;;;;;;;;;;;;;6193358;28;20364;-86
2023/05/23 04:39:09;;;;;;;14.95;11.00;;;;;;;;;;6196589;28;19925;-84
2023/05/23 04:42:11;;;;;;;14.88;11.07;;;;;;;;;;6193604;28;20058;-86
2023/05/23 04:45:14;;;;;;;19.13;10.98;;;;;;;;;;6195930;28;20254;-86
2023/05/23 04:48:20;;;;;;;15.45;10.95;;;;;;;;;;6197621;28;20478;-85
2023/05/23 04:51:21;;;;;;;16.15;10.30;;;;;;;;;;6196994;28;20089;-86
2023/05/23 04:54:23;;;;;;;17.58;12.02;;;;;;;;;;6196210;28;20101;-85
2023/05/23 04:57:25;;;;;;;13.70;11.07;;;;;;;;;;6198677;28;20226;-86
2023/05/23 05:00:29;;;;;;;18.80;11.77;;;;;;;;;;6194666;28;20054;-86
2023/05/23 05:03:31;;;;;;;18.90;10.95;;;;;;;;;;6195614;28;20042;-85
2023/05/23 05:06:33;;;;;;;14.93;11.25;;;;;;;;;;6196144;28;20046;-85
2023/05/23 05:09:35;;;;;;;14.45;10.43;;;;;;;;;;6193698;28;20058;-85
2023/05/23 05:12:36;;;;;;;17.75;13.13;;;;;;;;;;6198344;28;20062;-86
2023/05/23 05:15:39;;;;;;;13.80;11.73;;;;;;;;;;6194057;28;20058;-86
2023/05/23 05:18:42;;;;;;;17.98;13.32;;;;;;;;;;6178776;28;20042;-86
2023/05/23 05:21:44;;;;;;;16.58;12.90;;;;;;;;;;6195414;28;20049;-85
2023/05/23 05:24:45;;;;;;;18.15;13.40;;;;;;;;;;6197316;28;20061;-86
2023/05/23 05:27:47;;;;;;;16.08;12.52;;;;;;;;;;6194158;28;20274;-86
2023/05/23 05:30:53;;;;;;;15.43;12.13;;;;;;;;;;6193477;28;20174;-87
2023/05/23 05:33:54;;;;;;;14.98;12.00;;;;;;;;;;6195914;28;20350;-86
2023/05/23 05:36:56;;;;;;;20.67;13.23;;;;;;;;;;6193500;28;20046;-85
2023/05/23 05:40:04;;;;;;;18.00;12.90;;;;;;;;;;6195748;28;20144;-85
2023/05/23 05:43:09;;;;;;;19.40;12.65;;;;;;;;;;6193540;28;20124;-85
2023/05/23 05:46:12;;;;;;;16.40;12.45;;;;;;;;;;6194204;28;20046;-86
2023/05/23 05:49:14;;;;;;;21.02;14.73;;;;;;;;;;6194835;28;20046;-88
2023/05/23 05:52:16;;;;;;;16.08;12.52;;;;;;;;;;6194506;28;20074;-86
2023/05/23 05:55:18;;;;;;;17.75;14.02;;;;;;;;;;6191581;28;20064;-86
2023/05/23 05:58:19;;;;;;;24.77;13.43;;;;;;;;;;6193680;28;20050;-85
2023/05/23 06:01:24;;;;;;;18.38;13.02;;;;;;;;;;6189703;28;20282;-88
2023/05/23 06:04:25;;;;;;;16.40;13.20;;;;;;;;;;6194886;28;20061;-87
2023/05/23 06:07:27;;;;;;;21.63;13.70;;;;;;;;;;6194042;28;20250;-87
2023/05/23 06:10:29;;;;;;;18.27;13.73;;;;;;;;;;6174395;28;20105;-86
2023/05/23 06:13:30;;;;;;;18.17;12.98;;;;;;;;;;6193752;28;20269;-87
2023/05/23 06:16:34;;;;;;;19.27;13.85;;;;;;;;;;6196035;28;20117;-87
2023/05/23 06:19:37;;;;;;;19.45;14.40;;;;;;;;;;6197668;28;20080;-87
2023/05/23 06:22:39;;;;;;;20.77;15.05;;;;;;;;;;6196109;28;20386;-87
2023/05/23 06:25:41;;;;;;;23.38;14.63;;;;;;;;;;6194260;28;20054;-85
2023/05/23 06:28:43;;;;;;;22.67;14.33;;;;;;;;;;6193507;28;20061;-87
2023/05/23 06:31:46;;;;;;;17.58;13.88;;;;;;;;;;6194128;28;20160;-86
2023/05/23 06:34:48;;;;;;;14.77;13.02;;;;;;;;;;6193608;28;20058;-87
2023/05/23 06:37:50;;;;;;;21.92;14.52;;;;;;;;;;6194348;28;20061;-85
2023/05/23 06:40:51;;;;;;;16.25;13.50;;;;;;;;;;6182845;28;20113;-87
2023/05/23 06:43:53;;;;;;;16.48;13.68;;;;;;;;;;6197012;28;20058;-86
2023/05/23 06:46:57;;;;;;;19.73;13.35;;;;;;;;;;6199611;28;20076;-87
2023/05/23 06:49:59;;;;;;;23.33;14.13;;;;;;;;;;6196438;28;20046;-86
2023/05/23 06:53:01;;;;;;;21.23;14.82;;;;;;;;;;6200499;28;20062;-86
2023/05/23 06:56:02;;;;;;;19.08;13.77;;;;;;;;;;6198422;28;20339;-86
2023/05/23 06:59:04;;;;;;;18.90;13.70;;;;;;;;;;6196702;28;20065;-87
2023/05/23 07:02:07;;;;;;;17.77;13.93;;;;;;;;;;6197529;28;20062;-88
2023/05/23 07:05:09;;;;;;;18.95;14.32;;;;;;;;;;6196658;28;20047;-86
2023/05/23 07:08:11;;;;;;;22.48;14.85;;;;;;;;;;6197284;28;20078;-87
2023/05/23 07:11:12;;;;;;;16.13;12.27;;;;;;;;;;6199201;28;20069;-86
2023/05/23 07:14:15;;;;;;;19.52;12.15;;;;;;;;;;6199376;28;20051;-86
2023/05/23 07:17:18;;;;;;;11.13;9.93;;;;;;;;;;6198753;28;20204;-86
2023/05/23 07:20:20;;;;;;;12.88;10.68;;;;;;;;;;6198115;28;20295;-86
2023/05/23 07:23:22;;;;;;;19.25;9.88;;;;;;;;;;6196148;28;20263;-86
2023/05/23 07:26:26;;;;;;;11.85;9.77;;;;;;;;;;6199373;28;20322;-87
2023/05/23 07:29:27;;;;;;;19.70;9.73;;;;;;;;;;6196867;28;20549;-85
2023/05/23 07:32:30;;;;;;;12.48;9.48;;;;;;;;;;6180544;28;20074;-87
2023/05/23 07:35:32;;;;;;;13.73;9.25;;;;;;;;;;6194223;28;20050;-86
2023/05/23 07:38:34;;;;;;;12.13;9.05;;;;;;;;;;6198383;28;20054;-85
2023/05/23 07:41:35;;;;;;;11.38;8.82;;;;;;;;;;6195616;28;20050;-86
2023/05/23 07:44:37;;;;;;;15.93;9.55;;;;;;;;;;6198132;28;20176;-85
2023/05/23 07:47:41;;;;;;;12.43;9.00;;;;;;;;;;6194283;28;20097;-86
2023/05/23 07:50:43;;;;;;;10.65;7.72;;;;;;;;;;6197010;28;20101;-85
2023/05/23 07:53:44;;;;;;;12.45;7.93;;;;;;;;;;6195966;28;20117;-86
2023/05/23 07:56:46;;;;;;;11.73;7.70;;;;;;;;;;6193339;28;20283;-86
2023/05/23 07:59:48;;;;;;;8.90;7.97;;;;;;;;;;6194154;28;20047;-86
2023/05/23 08:02:51;;;;;;;10.02;7.97;;;;;;;;;;6195715;28;20201;-85
2023/05/23 08:05:52;;;;;;;12.25;7.82;;;;;;;;;;6193841;28;20275;-86
2023/05/23 08:08:54;;;;;;;14.10;8.50;;;;;;;;;;6196502;28;20136;-86
2023/05/23 08:11:56;;;;;;;14.05;7.75;;;;;;;;;;6192882;28;20335;-86
2023/05/23 08:14:57;;;;;;;11.90;8.48;;;;;;;;;;6196043;28;20166;-87
2023/05/23 08:18:01;;;;;;;10.93;8.20;;;;;;;;;;6193614;28;20054;-84
2023/05/23 08:21:03;;;;;;;10.30;8.10;;;;;;;;;;6194271;28;20059;-86
2023/05/23 08:24:05;;;;;;;13.38;7.82;;;;;;;;;;6195505;28;20069;-87
2023/05/23 08:27:08;;;;;;;11.20;8.00;;;;;;;;;;6177189;28;20054;-88
2023/05/23 08:30:11;;;;;;;15.05;8.27;;;;;;;;;;6194800;28;20258;-88
2023/05/23 08:33:14;;;;;;;9.88;7.63;;;;;;;;;;6197232;28;20051;-87
2023/05/23 08:36:16;;;;;;;14.35;9.80;;;;;;;;;;6179518;28;20101;-87
2023/05/23 08:39:18;;;;;;;10.25;8.55;;;;;;;;;;6198174;28;20359;-88
2023/05/23 08:42:20;;;;;;;12.77;8.50;;;;;;;;;;6195993;28;20061;-85
2023/05/23 08:45:22;;;;;;;12.57;9.43;;;;;;;;;;6197049;28;20204;-87
2023/05/23 08:48:27;;;;;;;22.02;12.70;;;;;;;;;;6195524;28;20331;-86
2023/05/23 08:51:30;;;;;;;19.27;14.20;;;;;;;;;;6181851;28;20116;-86
2023/05/23 08:54:32;;;;;;;20.05;14.63;;;;;;;;;;6194731;28;20058;-87
2023/05/23 08:57:35;;;;;;;20.60;15.52;;;;;;;;;;6176855;28;20069;-86
2023/05/23 09:00:37;;;;;;;18.65;14.70;;;;;;;;;;6195152;28;20058;-86
2023/05/23 09:03:41;;;;;;;20.73;13.57;;;;;;;;;;6195395;28;20263;-86
2023/05/23 09:06:45;;;;;;;15.18;13.65;;;;;;;;;;6196738;28;20168;-86
2023/05/23 09:09:47;;;;;;;20.55;15.82;;;;;;;;;;6180448;28;20050;-87
2023/05/23 09:12:48;;;;;;;20.60;15.48;;;;;;;;;;6196363;28;20343;-86
2023/05/23 09:15:58;;;;;;;17.98;16.15;;;;;;;;;;6197026;28;20310;-86
2023/05/23 09:19:10;;;;;;;19.80;15.63;;;;;;;;;;6197626;28;20055;-87
2023/05/23 09:22:12;;;;;;;19.13;14.48;;;;;;;;;;6177138;28;20117;-87
2023/05/23 09:25:14;;;;;;;19.02;15.13;;;;;;;;;;6194774;28;20064;-88
2023/05/23 09:28:15;;;;;;;15.77;13.43;;;;;;;;;;6197736;28;20049;-87
2023/05/23 09:31:17;;;;;;;18.55;12.73;;;;;;;;;;6193728;28;20062;-89
2023/05/23 09:34:20;;;;;;;17.67;14.38;;;;;;;;;;6195316;28;20069;-87
2023/05/23 09:37:23;;;;;;;16.27;14.07;;;;;;;;;;6195312;28;20342;-87
2023/05/23 09:40:28;;;;;;;;;;;;;;;;;;6196140;28;20053;-86
2023/05/23 09:43:30;;;;;;;17.40;12.50;;;;;;;;;;6194844;28;19977;-86
2023/05/23 09:46:35;;;;;;;13.43;11.38;;;;;;;;;;6177529;28;20281;-85
2023/05/23 09:49:40;;;;;;;15.43;12.10;;;;;;;;;;6194814;28;20046;-87
2023/05/23 09:52:42;;;;;;;15.35;10.18;;;;;;;;;;6191894;28;20054;-86
2023/05/23 09:55:43;;;;;;;15.90;10.53;;;;;;;;;;6192673;28;20065;-86
2023/05/23 09:58:47;;;;;;;12.40;10.80;;;;;;;;;;6191459;28;20473;-85
2023/05/23 10:01:50;;;;;;;12.25;9.43;;;;;;;;;;6174208;28;20054;-87
2023/05/23 10:04:53;;;;;;;;;;;;;;;;;;6193699;28;20794;-89
2023/05/23 10:07:56;;;;;;;10.95;8.45;;;;;;;;;;6191818;28;19933;-88
2023/05/23 10:11:45;;;;;;;15.55;9.57;;;;;;;;;;6191746;28;20090;-88
2023/05/23 10:14:52;;;;;;;13.63;10.00;;;;;;;;;;6192810;28;20053;-87
2023/05/23 10:18:02;;;;;;;11.00;9.00;;;;;;;;;;6194034;28;20300;-88
2023/05/23 10:21:10;;;;;;;9.98;8.20;;;;;;;;;;6194563;28;20123;-87
2023/05/23 10:24:12;;;;;;;11.35;10.18;;;;;;;;;;6193966;28;20057;-87
2023/05/23 10:27:13;;;;;;;;;;;;;;;;;;6193756;28;20169;-88
2023/05/23 10:30:15;;;;;;;9.50;8.40;;;;;;;;;;6195671;28;19930;-86
2023/05/23 10:33:17;;;;;;;13.93;9.18;;;;;;;;;;6191901;28;20062;-87
2023/05/23 10:36:25;;;;;;;11.30;8.07;;;;;;;;;;6194500;28;20310;-87
2023/05/23 10:39:36;;;;;;;11.95;9.27;;;;;;;;;;6192241;28;20165;-87
2023/05/23 10:42:44;;;;;;;15.68;9.27;;;;;;;;;;6191272;28;20085;-88
2023/05/23 10:45:49;;;;;;;9.93;8.93;;;;;;;;;;6191621;28;20477;-86
2023/05/23 10:48:56;;;;;;;13.75;10.05;;;;;;;;;;6192691;28;20038;-86
2023/05/23 10:51:59;;;;;;;10.50;9.43;;;;;;;;;;6193834;28;20350;-86
2023/05/23 10:55:01;;;;;;;11.13;9.05;;;;;;;;;;6191877;28;20308;-85
2023/05/23 10:58:15;;;;;;;10.83;8.77;;;;;;;;;;6194568;28;20070;-86
2023/05/23 11:01:18;;;;;;;9.63;8.15;;;;;;;;;;6192329;28;20481;-86
2023/05/23 11:04:25;;;;;;;12.52;8.82;;;;;;;;;;6194972;28;20062;-85
2023/05/23 11:07:32;;;;;;;11.45;8.82;;;;;;;;;;6193087;28;20405;-86
2023/05/23 11:10:51;;;;;;;11.50;7.88;;;;;;;;;;6190855;28;20104;-86
2023/05/23 11:14:02;;;;;;;9.45;7.20;;;;;;;;;;6192313;28;20152;-83
2023/05/23 11:17:16;;;;;;;9.05;8.13;;;;;;;;;;6192403;28;20051;-79
2023/05/23 11:20:22;;;;;;;9.73;7.82;;;;;;;;;;6190024;28;20050;-81
2023/05/23 11:23:40;;;;;;;7.30;6.55;;;;;;;;;;6191945;28;20059;-84
2023/05/23 11:26:52;;;;;;;8.18;5.90;;;;;;;;;;6193942;28;20054;-87
2023/05/23 11:30:02;;;;;;;7.90;5.38;;;;;;;;;;6199063;28;20069;-87
2023/05/23 11:33:12;;;;;;;8.38;6.40;;;;;;;;;;6196274;28;20060;-88
2023/05/23 11:36:15;;;;;;;7.55;6.15;;;;;;;;;;6195177;28;20074;-90
2023/05/23 11:39:19;;;;;;;8.45;7.32;;;;;;;;;;6195754;28;20097;-87
2023/05/23 11:42:22;;;;;;;8.57;6.25;;;;;;;;;;6197234;28;20065;-87
2023/05/23 11:45:25;;;;;;;7.22;6.53;;;;;;;;;;6197540;28;20077;-86
2023/05/23 11:48:27;;;;;;;7.40;6.10;;;;;;;;;;6196327;28;20054;-89
2023/05/23 11:51:28;;;;;;;7.85;5.68;;;;;;;;;;6197578;28;20051;-89
2023/05/23 11:54:32;;;;;;;8.40;5.80;;;;;;;;;;6195866;28;20106;-88
2023/05/23 11:57:34;;;;;;;12.40;5.97;;;;;;;;;;6196499;28;20156;-84
2023/05/23 12:00:43;;;;;;;8.30;5.57;;;;;;;;;;6196662;28;20066;-86
2023/05/23 12:03:46;;;;;;;10.30;6.25;;;;;;;;;;6197454;28;20053;-86
2023/05/23 12:06:48;;;;;;;7.55;5.80;;;;;;;;;;6197675;28;20330;-87
2023/05/23 12:09:56;;;;;;;6.75;5.60;;;;;;;;;;6194156;28;20051;-89
2023/05/23 12:12:58;;;;;;;7.13;5.88;;;;;;;;;;6196308;28;20101;-88
2023/05/23 12:16:00;;;;;;;;;;;;;;;;;;6197290;28;20055;-89
2023/05/23 12:19:03;;;;;;;8.43;5.88;;;;;;;;;;6197965;28;19926;-89
2023/05/23 12:22:07;;;;;;;5.85;5.07;;;;;;;;;;6181891;28;20185;-88
2023/05/23 12:25:10;;;;;;;7.00;5.53;;;;;;;;;;6197001;28;20066;-85
2023/05/23 12:28:13;;;;;;;8.65;6.85;;;;;;;;;;6194499;28;20329;-87
2023/05/23 12:31:17;;;;;;;8.68;7.03;;;;;;;;;;6195878;28;20211;-87
2023/05/23 12:34:20;;;;;;;10.93;6.07;;;;;;;;;;6195517;28;20063;-88
2023/05/23 12:37:23;;;;;;;7.53;5.53;;;;;;;;;;6192590;28;20338;-89
2023/05/23 12:40:26;;;;;;;8.85;6.00;;;;;;;;;;6192597;28;20042;-88
2023/05/23 12:43:28;;;;;;;7.72;5.72;;;;;;;;;;6195656;28;20135;-88
2023/05/23 12:46:30;;;;;;;9.07;6.00;;;;;;;;;;6195250;28;20050;-87
2023/05/23 12:49:31;;;;;;;;;;;;;;;;;;6194041;28;20334;-87
2023/05/23 12:52:35;;;;;;;6.90;5.97;;;;;;;;;;6196001;28;20081;-86
2023/05/23 12:55:38;;;;;;;7.03;6.32;;;;;;;;;;6193876;28;20365;-87
2023/05/23 12:58:40;;;;;;;6.93;6.30;;;;;;;;;;6195297;28;20384;-88
2023/05/23 13:01:41;;;;;;;6.10;5.53;;;;;;;;;;6195766;28;20053;-90
2023/05/23 13:04:43;;;;;;;7.68;6.00;;;;;;;;;;6196568;28;20049;-85
2023/05/23 13:07:45;;;;;;;6.57;5.97;;;;;;;;;;6195153;28;20112;-88
2023/05/23 13:10:49;;;;;;;7.95;5.40;;;;;;;;;;6195664;28;20339;-87
2023/05/23 13:13:51;;;;;;;9.75;5.63;;;;;;;;;;6196011;28;20039;-88
2023/05/23 13:16:53;;;;;;;;;;;;;;;;;;6195419;28;20058;-89
2023/05/23 13:19:55;;;;;;;11.27;5.80;;;;;;;;;;6196152;28;19948;-88
2023/05/23 13:22:57;;;;;;;7.10;6.03;;;;;;;;;;6196648;28;20113;-88
2023/05/23 13:26:00;;;;;;;6.32;5.68;;;;;;;;;;6194406;28;20061;-87
2023/05/23 13:29:01;;;;;;;7.57;5.60;;;;;;;;;;6195426;28;20287;-87
2023/05/23 13:32:04;;;;;;;5.93;5.32;;;;;;;;;;6194749;28;20117;-87
2023/05/23 13:35:06;;;;;;;6.30;4.97;;;;;;;;;;6191513;28;20263;-87
2023/05/23 13:38:08;;;;;;;7.68;5.70;;;;;;;;;;6192533;28;20058;-88
2023/05/23 13:41:11;;;;;;;5.65;5.03;;;;;;;;;;6197793;28;20058;-87
2023/05/23 13:44:13;;;;;;;8.90;5.43;;;;;;;;;;6192920;28;20054;-87
2023/05/23 13:47:15;;;;;;;8.88;5.68;;;;;;;;;;6197612;28;20058;-88
2023/05/23 13:50:17;;;;;;;6.15;5.55;;;;;;;;;;6193903;28;20062;-86
2023/05/23 13:53:20;;;;;;;6.13;5.53;;;;;;;;;;6195013;28;20085;-88
2023/05/23 13:56:24;;;;;;;7.57;5.25;;;;;;;;;;6193383;28;20060;-85
2023/05/23 13:59:26;;;;;;;9.35;5.50;;;;;;;;;;6194502;28;20073;-87
2023/05/23 14:02:30;;;;;;;5.20;4.70;;;;;;;;;;6195618;28;20057;-87
2023/05/23 14:05:32;;;;;;;7.68;4.82;;;;;;;;;;6192450;28;20323;-87
2023/05/23 14:08:33;;;;;;;;;;;;;;;;;;6194328;28;20343;-87
2023/05/23 14:11:37;;;;;;;5.93;5.13;;;;;;;;;;6191914;28;19930;-87
2023/05/23 14:14:38;;;;;;;6.38;5.35;;;;;;;;;;6195451;28;20706;-86
2023/05/23 14:17:40;;;;;;;6.07;4.90;;;;;;;;;;6191902;28;20073;-87
2023/05/23 14:20:42;;;;;;;8.20;5.63;;;;;;;;;;6194391;28;20050;-88
2023/05/23 14:23:43;;;;;;;6.05;5.25;;;;;;;;;;6195804;28;20141;-86
2023/05/23 14:26:46;;;;;;;7.47;5.07;;;;;;;;;;6196154;28;20113;-87
2023/05/23 14:29:48;;;;;;;5.40;4.90;;;;;;;;;;6192821;28;20042;-86
2023/05/23 14:32:50;;;;;;;5.68;5.15;;;;;;;;;;6190489;28;20092;-87
2023/05/23 14:35:52;;;;;;;5.80;4.72;;;;;;;;;;6192011;28;20066;-88
2023/05/23 14:38:53;;;;;;;8.27;5.43;;;;;;;;;;6192276;28;20057;-85
2023/05/23 14:41:56;;;;;;;9.47;5.40;;;;;;;;;;6190884;28;20054;-86
2023/05/23 14:44:58;;;;;;;11.07;5.13;;;;;;;;;;6194153;28;20050;-87
2023/05/23 14:48:00;;;;;;;8.43;4.97;;;;;;;;;;6194027;28;20133;-87
2023/05/23 14:51:03;;;;;;;7.73;5.00;;;;;;;;;;6192093;28;20057;-88
2023/05/23 14:54:05;;;;;;;7.32;5.45;;;;;;;;;;6192324;28;20466;-87
2023/05/23 14:57:08;;;;;;;6.13;5.07;;;;;;;;;;6192396;28;20050;-88
2023/05/23 15:00:12;;;;;;;11.30;5.45;;;;;;;;;;6192031;28;20045;-86
2023/05/23 15:03:13;;;;;;;6.50;5.25;;;;;;;;;;6198411;28;20058;-87
2023/05/23 15:06:15;;;;;;;8.47;5.20;;;;;;;;;;6198572;28;20065;-87
2023/05/23 15:09:17;;;;;;;26.00;6.68;;;;;;;;;;6156442;28;20841;-86
2023/05/23 15:12:21;;;;;;;9.65;5.32;;;;;;;;;;6197834;28;20113;-85
2023/05/23 15:15:22;;;;;;;5.65;4.90;;;;;;;;;;6200185;28;20085;-86
2023/05/23 15:18:24;;;;;;;10.18;4.50;;;;;;;;;;6199215;28;20597;-87
2023/05/23 15:21:26;;;;;;;7.40;4.93;;;;;;;;;;6198350;28;20069;-87
2023/05/23 15:24:28;;;;;;;9.85;5.47;;;;;;;;;;6197625;28;20050;-85
2023/05/23 15:27:31;;;;;;;8.25;5.10;;;;;;;;;;6198243;28;20074;-87
2023/05/23 15:30:35;;;;;;;13.27;5.07;;;;;;;;;;6197260;28;20050;-87
2023/05/23 15:33:36;;;;;;;5.95;4.72;;;;;;;;;;6197599;28;20062;-87
2023/05/23 15:36:40;;;;;;;9.40;5.30;;;;;;;;;;6196250;28;20058;-89
2023/05/23 15:39:41;;;;;;;7.93;5.30;;;;;;;;;;6197009;28;20095;-87
2023/05/23 15:42:45;;;;;;;6.55;5.15;;;;;;;;;;6197021;28;20054;-87
2023/05/23 15:45:47;;;;;;;6.75;5.13;;;;;;;;;;6195590;28;20062;-86
2023/05/23 15:48:48;;;;;;;6.03;4.97;;;;;;;;;;6198909;28;20069;-87
2023/05/23 15:51:51;;;;;;;7.93;5.10;;;;;;;;;;6196647;28;20109;-86
2023/05/23 15:54:53;;;;;;;7.60;4.65;;;;;;;;;;6195875;28;20058;-85
2023/05/23 15:57:56;;;;;;;7.55;5.20;;;;;;;;;;6198265;28;20062;-85
2023/05/23 16:00:58;;;;;;;5.88;5.07;;;;;;;;;;6198572;28;20121;-85
2023/05/23 16:03:59;;;;;;;6.15;5.20;;;;;;;;;;6198004;28;20066;-86
2023/05/23 16:07:01;;;;;;;6.30;5.70;;;;;;;;;;6195274;28;20058;-87
2023/05/23 16:10:03;;;;;;;9.00;5.75;;;;;;;;;;6197193;28;20118;-88
2023/05/23 16:13:07;;;;;;;6.75;5.40;;;;;;;;;;6196899;28;20117;-86
2023/05/23 16:16:09;;;;;;;9.55;5.35;;;;;;;;;;6196671;28;20084;-87
2023/05/23 16:19:11;;;;;;;5.80;4.97;;;;;;;;;;6196476;28;20155;-87
2023/05/23 16:22:12;;;;;;;6.30;4.68;;;;;;;;;;6198917;28;20050;-87
2023/05/23 16:25:14;;;;;;;7.55;4.68;;;;;;;;;;6196444;28;20250;-86
2023/05/23 16:28:18;;;;;;;7.72;5.03;;;;;;;;;;6197024;28;20057;-88
2023/05/23 16:31:25;;;;;;;7.40;4.78;;;;;;;;;;6193887;28;20054;-88
2023/05/23 16:34:27;;;;;;;8.05;5.10;;;;;;;;;;6194333;28;20092;-86
2023/05/23 16:37:29;;;;;;;6.60;4.72;;;;;;;;;;6194013;28;20059;-87
2023/05/23 16:40:31;;;;;;;7.85;4.95;;;;;;;;;;6196075;28;20042;-88
2023/05/23 16:43:35;;;;;;;7.28;4.82;;;;;;;;;;6195131;28;20511;-86
2023/05/23 16:46:36;;;;;;;5.93;4.97;;;;;;;;;;6197284;28;20123;-87
2023/05/23 16:49:38;;;;;;;8.15;5.63;;;;;;;;;;6194755;28;20065;-86
2023/05/23 16:52:40;;;;;;;7.05;5.07;;;;;;;;;;6196023;28;20292;-86
2023/05/23 16:55:42;;;;;;;8.77;5.53;;;;;;;;;;6195033;28;20042;-85
2023/05/23 16:58:45;;;;;;;6.63;5.45;;;;;;;;;;6194225;28;20054;-87
2023/05/23 17:01:47;;;;;;;6.20;5.30;;;;;;;;;;6179457;28;20053;-86
2023/05/23 17:04:49;;;;;;;8.60;4.70;;;;;;;;;;6196650;28;20061;-85
2023/05/23 17:07:50;;;;;;;7.47;4.82;;;;;;;;;;6193498;28;20058;-85
2023/05/23 17:10:52;;;;;;;6.60;4.88;;;;;;;;;;6193814;28;20113;-86
2023/05/23 17:13:55;;;;;;;7.05;5.03;;;;;;;;;;6196317;28;20065;-87
2023/05/23 17:16:57;;;;;;;7.05;5.65;;;;;;;;;;6195959;28;20058;-86
2023/05/23 17:19:59;;;;;;;6.68;5.07;;;;;;;;;;6193344;28;20061;-86
2023/05/23 17:23:01;;;;;;;6.90;5.00;;;;;;;;;;6194722;28;20329;-85
2023/05/23 17:26:03;;;;;;;7.32;5.13;;;;;;;;;;6193350;28;20242;-86
2023/05/23 17:29:06;;;;;;;6.88;5.53;;;;;;;;;;6194426;28;20164;-86
2023/05/23 17:32:07;;;;;;;;;;;;;;;;;;6193934;28;20318;-86
2023/05/23 17:35:09;;;;;;;5.60;4.90;;;;;;;;;;6194329;28;20190;-85
2023/05/23 17:38:11;;;;;;;7.43;5.40;;;;;;;;;;6194080;28;20243;-85
2023/05/23 17:41:13;;;;;;;7.57;5.32;;;;;;;;;;6195682;28;20472;-85
2023/05/23 17:44:17;;;;;;;10.98;5.57;;;;;;;;;;6195461;28;20413;-85
2023/05/23 17:47:20;;;;;;;7.38;5.45;;;;;;;;;;6193624;28;20066;-86
2023/05/23 17:50:21;;;;;;;6.65;5.43;;;;;;;;;;6196482;28;20063;-86
2023/05/23 17:53:23;;;;;;;8.10;5.15;;;;;;;;;;6196441;28;20748;-86
2023/05/23 17:56:25;;;;;;;6.72;4.90;;;;;;;;;;6195117;28;20146;-86
2023/05/23 17:59:28;;;;;;;5.90;5.10;;;;;;;;;;6193772;28;20057;-87
2023/05/23 18:02:31;;;;;;;6.75;5.18;;;;;;;;;;6196816;28;20353;-85
2023/05/23 18:05:32;;;;;;;8.95;5.43;;;;;;;;;;6191857;28;20062;-86